Observation data for Morton on 02/22/2019      Previous  Date  Next       Current Mesonet Observations  Soil Data  Daily Summary Page  Observations in Plain Language
KMNS 220600Z 12010KT 04/M03 A2984 RMK A01 T00371028  RH  063%=      5-min Rain = 0
KMNS 220605Z 12011KT 04/M03 A2984 RMK A01 T00371028  RH  063%=      5-min Rain = 0
KMNS 220610Z 12010KT 04/M03 A2984 RMK A01 T00371027  RH  063%=      5-min Rain = 0
KMNS 220615Z 12010KT 04/M03 A2984 RMK A01 T00381027  RH  063%=      5-min Rain = 0
KMNS 220620Z 12009KT 04/M03 A2984 RMK A01 T00391027  RH  062%=      5-min Rain = 0
KMNS 220625Z 12008KT 04/M03 A2984 RMK A01 T00391027  RH  063%=      5-min Rain = 0
KMNS 220630Z 12008G13KT 04/M03 A2985 RMK A01 T00381028  RH  063%=      5-min Rain = 0
KMNS 220635Z 12007KT 04/M03 A2985 RMK A01 T00371028  RH  063%=      5-min Rain = 0
KMNS 220640Z 12007KT 04/M03 A2984 RMK A01 T00351028  RH  064%=      5-min Rain = 0
KMNS 220645Z 11008KT 04/M03 A2984 RMK A01 T00351027  RH  064%=      5-min Rain = 0
KMNS 220650Z 11007KT 04/M03 A2984 RMK A01 T00361027  RH  064%=      5-min Rain = 0
KMNS 220655Z 12006KT 03/M03 A2985 RMK A01 T00341028  RH  064%=      5-min Rain = 0
KMNS 220700Z 12006KT 04/M03 A2985 RMK A01 T00351027  RH  064%=      5-min Rain = 0
KMNS 220705Z 13005KT 04/M03 A2985 RMK A01 T00351027  RH  065%=      5-min Rain = 0
KMNS 220710Z 12009KT 03/M03 A2984 RMK A01 T00331026  RH  066%=      5-min Rain = 0
KMNS 220715Z 13008KT 03/M03 A2985 RMK A01 T00331025  RH  067%=      5-min Rain = 0
KMNS 220720Z 13007KT 03/M03 A2985 RMK A01 T00311025  RH  067%=      5-min Rain = 0
KMNS 220725Z 13008KT 03/M03 A2985 RMK A01 T00291025  RH  068%=      5-min Rain = 0
KMNS 220730Z 13007KT 03/M02 A2986 RMK A01 T00291024  RH  069%=      5-min Rain = 0
KMNS 220735Z 14005KT 03/M02 A2987 RMK A01 T00291024  RH  069%=      5-min Rain = 0
KMNS 220740Z 15004KT 03/M03 A2987 RMK A01 T00271025  RH  069%=      5-min Rain = 0
KMNS 220745Z 13004KT 02/M03 A2987 RMK A01 T00241026  RH  070%=      5-min Rain = 0
KMNS 220750Z 13004KT 02/M03 A2987 RMK A01 T00191029  RH  071%=      5-min Rain = 0
KMNS 220755Z 13006KT 01/M03 A2987 RMK A01 T00141032  RH  072%=      5-min Rain = 0
KMNS 220800Z 12007KT 01/M03 A2987 RMK A01 T00101033  RH  073%=      5-min Rain = 0
KMNS 220805Z 12008KT 01/M03 A2987 RMK A01 T00091032  RH  075%=      5-min Rain = 0
KMNS 220810Z 12008KT 01/M03 A2987 RMK A01 T00111030  RH  075%=      5-min Rain = 0
KMNS 220815Z 12008KT 01/M03 A2987 RMK A01 T00111029  RH  075%=      5-min Rain = 0
KMNS 220820Z 11007KT 01/M03 A2987 RMK A01 T00121028  RH  075%=      5-min Rain = 0
KMNS 220825Z 11007KT 01/M03 A2987 RMK A01 T00111028  RH  075%=      5-min Rain = 0
KMNS 220830Z 11007KT 01/M03 A2987 RMK A01 T00091031  RH  075%=      5-min Rain = 0
KMNS 220835Z 11007KT 01/M03 A2987 RMK A01 T00071032  RH  076%=      5-min Rain = 0
KMNS 220840Z 10007KT 01/M03 A2987 RMK A01 T00061032  RH  076%=      5-min Rain = 0
KMNS 220845Z 10007KT 01/M03 A2987 RMK A01 T00051033  RH  076%=      5-min Rain = 0
KMNS 220850Z 10007KT 00/M03 A2987 RMK A01 T00041033  RH  077%=      5-min Rain = 0
KMNS 220855Z 10007KT 00/M03 A2987 RMK A01 T00041033  RH  077%=      5-min Rain = 0
KMNS 220900Z 10007KT 01/M03 A2987 RMK A01 T00051032  RH  077%=      5-min Rain = 0
KMNS 220905Z 09007KT 01/M03 A2987 RMK A01 T00051031  RH  077%=      5-min Rain = 0
KMNS 220910Z 08006KT 00/M03 A2987 RMK A01 T00041032  RH  077%=      5-min Rain = 0
KMNS 220915Z 08006KT 00/M04 A2987 RMK A01 T00011035  RH  078%=      5-min Rain = 0
KMNS 220920Z 09007KT M00/M04 A2987 RMK A01 T10021036  RH  078%=      5-min Rain = 0
KMNS 220925Z 09006KT M00/M04 A2987 RMK A01 T10041037  RH  079%=      5-min Rain = 0
KMNS 220930Z 10007KT M01/M04 A2986 RMK A01 T10061038  RH  079%=      5-min Rain = 0
KMNS 220935Z 10006KT M01/M04 A2986 RMK A01 T10061039  RH  079%=      5-min Rain = 0
KMNS 220940Z 09007KT M01/M04 A2986 RMK A01 T10071041  RH  078%=      5-min Rain = 0
KMNS 220945Z 07006KT M01/M04 A2986 RMK A01 T10071042  RH  077%=      5-min Rain = 0
KMNS 220950Z 07006KT M01/M05 A2986 RMK A01 T10111046  RH  077%=      5-min Rain = 0
KMNS 220955Z 07006KT M01/M05 A2986 RMK A01 T10131049  RH  077%=      5-min Rain = 0
KMNS 221000Z 08007KT M01/M05 A2986 RMK A01 T10141049  RH  077%=      5-min Rain = 0
KMNS 221005Z 09007KT M01/M05 A2986 RMK A01 T10121048  RH  077%=      5-min Rain = 0
KMNS 221010Z 09006KT M01/M05 A2986 RMK A01 T10111049  RH  076%=      5-min Rain = 0
KMNS 221015Z 08006KT M01/M05 A2986 RMK A01 T10111049  RH  075%=      5-min Rain = 0
KMNS 221020Z 08007KT M01/M05 A2986 RMK A01 T10121050  RH  076%=      5-min Rain = 0
KMNS 221025Z 09006KT M01/M05 A2986 RMK A01 T10131050  RH  076%=      5-min Rain = 0
KMNS 221030Z 09007KT M02/M05 A2986 RMK A01 T10161051  RH  077%=      5-min Rain = 0
KMNS 221035Z 08007KT M02/M05 A2986 RMK A01 T10161051  RH  077%=      5-min Rain = 0
KMNS 221040Z 07006KT M02/M05 A2986 RMK A01 T10181053  RH  077%=      5-min Rain = 0
KMNS 221045Z 06006KT M02/M06 A2986 RMK A01 T10201056  RH  077%=      5-min Rain = 0
KMNS 221050Z 06005KT M02/M06 A2986 RMK A01 T10211056  RH  077%=      5-min Rain = 0
KMNS 221055Z 08005KT M02/M06 A2986 RMK A01 T10231058  RH  077%=      5-min Rain = 0
KMNS 221100Z 07006KT M03/M06 A2986 RMK A01 T10261060  RH  078%=      5-min Rain = 0
KMNS 221105Z 07006KT M03/M06 A2986 RMK A01 T10261060  RH  077%=      5-min Rain = 0
KMNS 221110Z 08006KT M03/M06 A2986 RMK A01 T10281061  RH  078%=      5-min Rain = 0
KMNS 221115Z 09006KT M03/M06 A2986 RMK A01 T10301061  RH  079%=      5-min Rain = 0
KMNS 221120Z 09006KT M03/M06 A2986 RMK A01 T10261056  RH  080%=      5-min Rain = 0
KMNS 221125Z 09005KT M02/M05 A2986 RMK A01 T10211051  RH  080%=      5-min Rain = 0
KMNS 221130Z 09006KT M02/M05 A2985 RMK A01 T10191050  RH  079%=      5-min Rain = 0
KMNS 221135Z 09006KT M02/M05 A2985 RMK A01 T10161048  RH  079%=      5-min Rain = 0
KMNS 221140Z 10006KT M02/M05 A2986 RMK A01 T10151046  RH  079%=      5-min Rain = 0
KMNS 221145Z 10007KT M02/M05 A2985 RMK A01 T10161047  RH  080%=      5-min Rain = 0
KMNS 221150Z 11006KT M02/M05 A2986 RMK A01 T10171046  RH  081%=      5-min Rain = 0
KMNS 221155Z 10007KT M02/M05 A2986 RMK A01 T10171046  RH  081%=      5-min Rain = 0
KMNS 221200Z 10007KT M02/M04 A2986 RMK A01 T10161043  RH  082%=      5-min Rain = 0
KMNS 221205Z 10007KT M01/M04 A2986 RMK A01 T10131040  RH  082%=      5-min Rain = 0
KMNS 221210Z 10005KT M01/M04 A2986 RMK A01 T10111038  RH  083%=      5-min Rain = 0
KMNS 221215Z 10006KT M01/M04 A2987 RMK A01 T10091035  RH  083%=      5-min Rain = 0
KMNS 221220Z 10007KT M01/M03 A2987 RMK A01 T10081034  RH  083%=      5-min Rain = 0
KMNS 221225Z 11007KT M01/M03 A2987 RMK A01 T10071032  RH  083%=      5-min Rain = 0
KMNS 221230Z 11007KT M01/M03 A2987 RMK A01 T10061031  RH  084%=      5-min Rain = 0
KMNS 221235Z 11007KT M01/M03 A2987 RMK A01 T10051030  RH  084%=      5-min Rain = 0
KMNS 221240Z 11007KT M00/M03 A2987 RMK A01 T10041029  RH  084%=      5-min Rain = 0
KMNS 221245Z 11007KT M00/M03 A2988 RMK A01 T10031028  RH  084%=      5-min Rain = 0
KMNS 221250Z 11008KT M00/M03 A2987 RMK A01 T10021026  RH  084%=      5-min Rain = 0
KMNS 221255Z 11007KT 00/02 A2987 RMK A01 T00000-24  RH  084%=      5-min Rain = 0
KMNS 221300Z 12008KT 00/M02 A2988 RMK A01 T00021022  RH  084%=      5-min Rain = 0
KMNS 221305Z 12008KT 00/M02 A2988 RMK A01 T00041019  RH  085%=      5-min Rain = 0
KMNS 221310Z 12008KT 01/M02 A2988 RMK A01 T00051017  RH  086%=      5-min Rain = 0
KMNS 221315Z 12008KT 01/M02 A2988 RMK A01 T00051016  RH  086%=      5-min Rain = 0
KMNS 221320Z 12008KT 01/M02 A2988 RMK A01 T00061016  RH  086%=      5-min Rain = 0
KMNS 221325Z 12008KT 01/M02 A2988 RMK A01 T00061015  RH  086%=      5-min Rain = 0
KMNS 221330Z 12008KT 01/M01 A2988 RMK A01 T00091012  RH  087%=      5-min Rain = 0
KMNS 221335Z 12008KT 01/M01 A2988 RMK A01 T00101010  RH  087%=      5-min Rain = 0
KMNS 221340Z 13007KT 01/M01 A2989 RMK A01 T00111008  RH  088%=      5-min Rain = 0
KMNS 221345Z 13008KT 01/M01 A2989 RMK A01 T00121006  RH  088%=      5-min Rain = 0
KMNS 221350Z 13008KT 01/M01 A2989 RMK A01 T00131005  RH  089%=      5-min Rain = 0
KMNS 221355Z 13008KT 01/M00 A2989 RMK A01 T00141003  RH  089%=      5-min Rain = 0
KMNS 221400Z 14009KT 02/00 A2989 RMK A01 T00160000  RH  090%=      5-min Rain = 0
KMNS 221405Z 13008KT 02/00 A299 RMK A01 T00180003  RH  091%=      5-min Rain = 0
KMNS 221410Z 12008KT 02/00 A299 RMK A01 T00180004  RH  091%=      5-min Rain = 0
KMNS 221415Z 12005KT 02/01 A2991 RMK A01 T00180005  RH  092%=      5-min Rain = 0
KMNS 221420Z 11006KT 02/01 A2991 RMK A01 T00180006  RH  093%=      5-min Rain = 0
KMNS 221425Z 11005KT 02/01 A2992 RMK A01 T00180006  RH  093%=      5-min Rain = 0
KMNS 221430Z 11006KT 02/01 A2992 RMK A01 T00180007  RH  093%=      5-min Rain = 0
KMNS 221435Z 12006KT 02/01 A2992 RMK A01 T00180007  RH  094%=      5-min Rain = 0
KMNS 221440Z 11005KT 02/01 A2992 RMK A01 T00190009  RH  094%=      5-min Rain = 0
KMNS 221445Z 10005KT 02/01 A2993 RMK A01 T00200009  RH  094%=      5-min Rain = 0
KMNS 221450Z 10005KT 02/01 A2993 RMK A01 T00200010  RH  095%=      5-min Rain = 0
KMNS 221455Z 09002KT 02/01 A2993 RMK A01 T00200011  RH  095%=      5-min Rain = 0
KMNS 221500Z 09003KT 02/01 A2994 RMK A01 T00200011  RH  095%=      5-min Rain = 0
KMNS 221505Z 11003KT 02/01 A2994 RMK A01 T00210012  RH  095%=      5-min Rain = 0
KMNS 221510Z 12003KT 02/01 A2994 RMK A01 T00220013  RH  095%=      5-min Rain = 0
KMNS 221515Z 13003KT 02/02 A2994 RMK A01 T00230015  RH  096%=      5-min Rain = 0
KMNS 221520Z 14004KT 03/02 A2994 RMK A01 T00250017  RH  096%=      5-min Rain = 0
KMNS 221525Z 14005KT 03/02 A2994 RMK A01 T00260018  RH  096%=      5-min Rain = 0
KMNS 221530Z 14005KT 03/02 A2994 RMK A01 T00280021  RH  096%=      5-min Rain = 0
KMNS 221535Z 13004KT 03/02 A2994 RMK A01 T00290021  RH  096%=      5-min Rain = 0
KMNS 221540Z 14005KT 03/02 A2994 RMK A01 T00290022  RH  096%=      5-min Rain = 0
KMNS 221545Z 14006KT 03/02 A2994 RMK A01 T00300023  RH  097%=      5-min Rain = 0
KMNS 221550Z 15006KT 03/03 A2994 RMK A01 T00320025  RH  097%=      5-min Rain = 0
KMNS 221555Z 14005KT 03/03 A2994 RMK A01 T00320025  RH  097%=      5-min Rain = 0
KMNS 221600Z 13005KT 03/03 A2994 RMK A01 T00320025  RH  097%=      5-min Rain = 0
KMNS 221605Z 14006KT 03/03 A2994 RMK A01 T00330026  RH  097%=      5-min Rain = 0
KMNS 221610Z 13005KT 04/03 A2994 RMK A01 T00350028  RH  097%=      5-min Rain = 0
KMNS 221615Z 13005KT 04/03 A2994 RMK A01 T00350028  RH  097%=      5-min Rain = 0
KMNS 221620Z 13005KT 04/03 A2994 RMK A01 T00360030  RH  097%=      5-min Rain = 0
KMNS 221625Z 13005KT 04/03 A2994 RMK A01 T00370031  RH  098%=      5-min Rain = 0
KMNS 221630Z 14005KT 04/03 A2994 RMK A01 T00380032  RH  098%=      5-min Rain = 0
KMNS 221635Z 13005KT 04/03 A2993 RMK A01 T00390033  RH  098%=      5-min Rain = 0
KMNS 221640Z 14007KT 04/03 A2993 RMK A01 T00390034  RH  098%=      5-min Rain = 0
KMNS 221645Z 16008KT 04/04 A2993 RMK A01 T00410035  RH  098%=      5-min Rain = 0
KMNS 221650Z 15007KT 04/04 A2993 RMK A01 T00430037  RH  098%=      5-min Rain = 0
KMNS 221655Z 14008KT 04/04 A2993 RMK A01 T00430038  RH  098%=      5-min Rain = 0
KMNS 221700Z 15008KT 04/04 A2992 RMK A01 T00440038  RH  098%=      5-min Rain = 0
KMNS 221705Z 14008KT 04/04 A2993 RMK A01 T00440038  RH  098%=      5-min Rain = 0
KMNS 221710Z 15007KT 05/04 A2993 RMK A01 T00450039  RH  098%=      5-min Rain = 0
KMNS 221715Z 15007KT 05/04 A2993 RMK A01 T00460040  RH  097%=      5-min Rain = 0
KMNS 221720Z 14007G12KT 05/04 A2993 RMK A01 T00490042  RH  097%=      5-min Rain = 0
KMNS 221725Z 15007KT 05/04 A2992 RMK A01 T00490040  RH  096%=      5-min Rain = 0
KMNS 221730Z 14008KT 05/04 A2992 RMK A01 T00520040  RH  094%=      5-min Rain = 0
KMNS 221735Z 15008KT 06/04 A2992 RMK A01 T00560038  RH  090%=      5-min Rain = 0
KMNS 221740Z 15007KT 06/03 A2992 RMK A01 T00590033  RH  085%=      5-min Rain = 0
KMNS 221745Z 15007KT 07/03 A2992 RMK A01 T00660033  RH  081%=      5-min Rain = 0
KMNS 221750Z 14007KT 07/03 A2992 RMK A01 T00660030  RH  079%=      5-min Rain = 0
KMNS 221755Z 15007KT 07/03 A2992 RMK A01 T00700032  RH  078%=      5-min Rain = 0
KMNS 221800Z 15007KT 07/03 A2991 RMK A01 T00710026  RH  074%=      5-min Rain = 0
KMNS 221805Z 15007KT 08/03 A2991 RMK A01 T00750028  RH  073%=      5-min Rain = 0
KMNS 221810Z 14008KT 07/03 A2991 RMK A01 T00740025  RH  072%=      5-min Rain = 0
KMNS 221815Z 16007G12KT 08/03 A299 RMK A01 T00790025  RH  070%=      5-min Rain = 0
KMNS 221820Z 16007KT 08/03 A299 RMK A01 T00840027  RH  069%=      5-min Rain = 0
KMNS 221825Z 15009KT 09/03 A2989 RMK A01 T00880025  RH  065%=      5-min Rain = 0
KMNS 221830Z 14009KT 09/02 A2989 RMK A01 T00910024  RH  064%=      5-min Rain = 0
KMNS 221835Z 15007KT 09/03 A2989 RMK A01 T00920025  RH  064%=      5-min Rain = 0
KMNS 221840Z 14008KT 10/02 A2988 RMK A01 T00980023  RH  061%=      5-min Rain = 0
KMNS 221845Z 14008KT 10/02 A2988 RMK A01 T00970023  RH  061%=      5-min Rain = 0
KMNS 221850Z 15008G13KT 10/02 A2988 RMK A01 T00970021  RH  060%=      5-min Rain = 0
KMNS 221855Z 15007KT 11/02 A2987 RMK A01 T01050023  RH  058%=      5-min Rain = 0
KMNS 221900Z 16007KT 10/02 A2987 RMK A01 T01020019  RH  057%=      5-min Rain = 0
KMNS 221905Z 14006KT 11/02 A2987 RMK A01 T01060022  RH  057%=      5-min Rain = 0
KMNS 221910Z 17007G12KT 11/02 A2986 RMK A01 T01110020  RH  054%=      5-min Rain = 0
KMNS 221915Z 15008KT 11/02 A2986 RMK A01 T01120020  RH  054%=      5-min Rain = 0
KMNS 221920Z 16006G11KT 11/02 A2985 RMK A01 T01130022  RH  054%=      5-min Rain = 0
KMNS 221925Z 15008KT 12/02 A2985 RMK A01 T01210022  RH  052%=      5-min Rain = 0
KMNS 221930Z 16008KT 13/02 A2984 RMK A01 T01260019  RH  049%=      5-min Rain = 0
KMNS 221935Z 14009KT 12/02 A2984 RMK A01 T01220017  RH  049%=      5-min Rain = 0
KMNS 221940Z 14007KT 12/02 A2984 RMK A01 T01230017  RH  049%=      5-min Rain = 0
KMNS 221945Z 13008KT 13/02 A2983 RMK A01 T01250016  RH  048%=      5-min Rain = 0
KMNS 221950Z 14007KT 13/02 A2983 RMK A01 T01270017  RH  048%=      5-min Rain = 0
KMNS 221955Z 14007KT 13/02 A2983 RMK A01 T01280016  RH  047%=      5-min Rain = 0
KMNS 222000Z 15008KT 14/01 A2982 RMK A01 T01350014  RH  044%=      5-min Rain = 0
KMNS 222005Z 13008G15KT 13/01 A2982 RMK A01 T01330012  RH  044%=      5-min Rain = 0
KMNS 222010Z 14009KT 13/01 A2981 RMK A01 T01340013  RH  044%=      5-min Rain = 0
KMNS 222015Z 16007KT 14/01 A2981 RMK A01 T01420011  RH  042%=      5-min Rain = 0
KMNS 222020Z 15010KT 14/01 A298 RMK A01 T01430008  RH  040%=      5-min Rain = 0
KMNS 222025Z 14008KT 15/01 A298 RMK A01 T01450005  RH  039%=      5-min Rain = 0
KMNS 222030Z 15009G14KT 15/00 A2979 RMK A01 T01490002  RH  037%=      5-min Rain = 0
KMNS 222035Z 15009KT 15/00 A2979 RMK A01 T01490004  RH  038%=      5-min Rain = 0
KMNS 222040Z 15011KT 15/M00 A2979 RMK A01 T01531002  RH  035%=      5-min Rain = 0
KMNS 222045Z 15010G15KT 15/M01 A2978 RMK A01 T01541006  RH  034%=      5-min Rain = 0
KMNS 222050Z 15011G16KT 16/M01 A2978 RMK A01 T01591009  RH  032%=      5-min Rain = 0
KMNS 222055Z 15010G15KT 16/M01 A2978 RMK A01 T01591012  RH  031%=      5-min Rain = 0
KMNS 222100Z 16011G17KT 16/M01 A2978 RMK A01 T01611014  RH  031%=      5-min Rain = 0
KMNS 222105Z 16010KT 16/M02 A2977 RMK A01 T01611021  RH  029%=      5-min Rain = 0
KMNS 222110Z 18012G18KT 16/M02 A2977 RMK A01 T01641018  RH  029%=      5-min Rain = 0
KMNS 222115Z 17011G19KT 17/M02 A2977 RMK A01 T01671021  RH  028%=      5-min Rain = 0
KMNS 222120Z 16010G15KT 17/M02 A2977 RMK A01 T01671021  RH  028%=      5-min Rain = 0
KMNS 222125Z 17011G16KT 17/M03 A2976 RMK A01 T01721027  RH  026%=      5-min Rain = 0
KMNS 222130Z 17011G17KT 17/M03 A2976 RMK A01 T01691032  RH  025%=      5-min Rain = 0
KMNS 222135Z 17012G19KT 17/M04 A2976 RMK A01 T01741037  RH  024%=      5-min Rain = 0
KMNS 222140Z 17013G20KT 17/M04 A2976 RMK A01 T01721042  RH  023%=      5-min Rain = 0
KMNS 222145Z 16012KT 17/M04 A2976 RMK A01 T01721041  RH  023%=      5-min Rain = 0
KMNS 222150Z 17014G19KT 17/M05 A2976 RMK A01 T01731046  RH  022%=      5-min Rain = 0
KMNS 222155Z 18014KT 17/M04 A2976 RMK A01 T01741044  RH  022%=      5-min Rain = 0
KMNS 222200Z 17014G20KT 17/M05 A2976 RMK A01 T01741046  RH  022%=      5-min Rain = 0
KMNS 222205Z 17011G17KT 18/M04 A2976 RMK A01 T01761043  RH  022%=      5-min Rain = 0
KMNS 222210Z 18015G20KT 18/M05 A2976 RMK A01 T01761047  RH  021%=      5-min Rain = 0
KMNS 222215Z 18015KT 17/M05 A2976 RMK A01 T01741049  RH  021%=      5-min Rain = 0
KMNS 222220Z 18015G22KT 18/M05 A2976 RMK A01 T01781052  RH  020%=      5-min Rain = 0
KMNS 222225Z 18014KT 17/M05 A2976 RMK A01 T01741048  RH  022%=      5-min Rain = 0
KMNS 222230Z 16012G17KT 18/M05 A2975 RMK A01 T01751048  RH  022%=      5-min Rain = 0
KMNS 222235Z 16013G18KT 18/M05 A2975 RMK A01 T01761047  RH  022%=      5-min Rain = 0
KMNS 222240Z 18013G20KT 18/M05 A2975 RMK A01 T01781050  RH  021%=      5-min Rain = 0
KMNS 222245Z 17012G17KT 18/M05 A2975 RMK A01 T01761045  RH  022%=      5-min Rain = 0
KMNS 222250Z 17011KT 17/M04 A2975 RMK A01 T01741044  RH  022%=      5-min Rain = 0
KMNS 222255Z 17014G22KT 17/M04 A2975 RMK A01 T01741044  RH  022%=      5-min Rain = 0
KMNS 222300Z 16015G21KT 17/M04 A2975 RMK A01 T01711043  RH  023%=      5-min Rain = 0
KMNS 222305Z 16011G17KT 17/M04 A2975 RMK A01 T01721043  RH  023%=      5-min Rain = 0
KMNS 222310Z 17015KT 17/M04 A2975 RMK A01 T01711040  RH  023%=      5-min Rain = 0
KMNS 222315Z 15014G19KT 17/M04 A2974 RMK A01 T01701036  RH  024%=      5-min Rain = 0
KMNS 222320Z 16014G22KT 17/M04 A2974 RMK A01 T01691037  RH  024%=      5-min Rain = 0
KMNS 222325Z 16014G20KT 17/M04 A2974 RMK A01 T01691040  RH  024%=      5-min Rain = 0
KMNS 222330Z 16014G20KT 17/M04 A2974 RMK A01 T01671036  RH  025%=      5-min Rain = 0
KMNS 222335Z 15014G19KT 17/M03 A2974 RMK A01 T01661034  RH  025%=      5-min Rain = 0
KMNS 222340Z 16014G20KT 17/M03 A2974 RMK A01 T01651032  RH  026%=      5-min Rain = 0
KMNS 222345Z 15016G21KT 16/M03 A2973 RMK A01 T01641031  RH  026%=      5-min Rain = 0
KMNS 222350Z 16014G20KT 16/M03 A2973 RMK A01 T01631030  RH  027%=      5-min Rain = 0
KMNS 222355Z 16014KT 16/M03 A2973 RMK A01 T01611030  RH  027%=      5-min Rain = 0
KMNS 230000Z 15015KT 16/M01 A2973 RMK A01 T01591011  RH  032%=      5-min Rain = 0
KMNS 230005Z 14014KT 15/00 A2973 RMK A01 T015400-0  RH  035%=      5-min Rain = 0
KMNS 230010Z 13016G23KT 15/00 A2973 RMK A01 T01520000  RH  036%=      5-min Rain = 0
KMNS 230015Z 12017G22KT 14/03 A2973 RMK A01 T01400027  RH  047%=      5-min Rain = 0
KMNS 230020Z 12016G21KT 13/03 A2972 RMK A01 T01340032  RH  051%=      5-min Rain = 0
KMNS 230025Z 12015KT 13/03 A2972 RMK A01 T01300033  RH  053%=      5-min Rain = 0
KMNS 230030Z 11016KT 13/03 A2972 RMK A01 T01250034  RH  055%=      5-min Rain = 0
KMNS 230035Z 11016KT 12/04 A2972 RMK A01 T01170035  RH  058%=      5-min Rain = 0
KMNS 230040Z 11017KT 11/04 A2972 RMK A01 T01110035  RH  061%=      5-min Rain = 0
KMNS 230045Z 11015G20KT 11/04 A2972 RMK A01 T01070035  RH  062%=      5-min Rain = 0
KMNS 230050Z 11014KT 10/03 A2972 RMK A01 T01040034  RH  063%=      5-min Rain = 0
KMNS 230055Z 11014KT 10/03 A2972 RMK A01 T01020034  RH  064%=      5-min Rain = 0
KMNS 230100Z 11013KT 10/03 A2972 RMK A01 T00990033  RH  065%=      5-min Rain = 0
KMNS 230105Z 11012G17KT 10/03 A2972 RMK A01 T00960033  RH  066%=      5-min Rain = 0
KMNS 230110Z 10014KT 09/03 A2972 RMK A01 T00940033  RH  067%=      5-min Rain = 0
KMNS 230115Z 10013G18KT 09/03 A2972 RMK A01 T00910032  RH  068%=      5-min Rain = 0
KMNS 230120Z 10014KT 09/03 A2972 RMK A01 T00880032  RH  069%=      5-min Rain = 0
KMNS 230125Z 10013KT 09/03 A2972 RMK A01 T00850031  RH  070%=      5-min Rain = 0
KMNS 230130Z 09014KT 08/03 A2972 RMK A01 T00830031  RH  071%=      5-min Rain = 0
KMNS 230135Z 09014KT 08/03 A2971 RMK A01 T00800031  RH  072%=      5-min Rain = 0
KMNS 230140Z 10013KT 08/03 A2971 RMK A01 T00780031  RH  073%=      5-min Rain = 0
KMNS 230145Z 09014KT 08/03 A2971 RMK A01 T00770031  RH  074%=      5-min Rain = 0
KMNS 230150Z 09013KT 08/03 A2971 RMK A01 T00760030  RH  074%=      5-min Rain = 0
KMNS 230155Z 09014KT 08/03 A297 RMK A01 T00750030  RH  075%=      5-min Rain = 0
KMNS 230200Z 09013KT 07/03 A297 RMK A01 T00740030  RH  075%=      5-min Rain = 0
KMNS 230205Z 09013G18KT 07/03 A297 RMK A01 T00730031  RH  076%=      5-min Rain = 0
KMNS 230210Z 10014KT 07/03 A2971 RMK A01 T00720031  RH  077%=      5-min Rain = 0
KMNS 230215Z 10013KT 07/03 A2972 RMK A01 T00710031  RH  077%=      5-min Rain = 0
KMNS 230220Z 10012KT 07/03 A2972 RMK A01 T00700031  RH  078%=      5-min Rain = 0
KMNS 230225Z 11011G16KT 07/03 A2974 RMK A01 T00700031  RH  078%=      5-min Rain = 0
KMNS 230230Z 12007KT 07/03 A2975 RMK A01 T00690032  RH  078%=      5-min Rain = 0
KMNS 230235Z 13008KT 07/03 A2977 RMK A01 T00690032  RH  079%=      5-min Rain = 0
KMNS 230240Z 11012G19KT 07/03 A2977 RMK A01 T00680034  RH  080%=      5-min Rain = 0
KMNS 230245Z 11015G21KT 07/04 A2975 RMK A01 T00650039  RH  085%=      5-min Rain = 0
KMNS 230250Z 11011KT 06/04 A2977 RMK A01 T00640040  RH  087%=      5-min Rain = 0
KMNS 230255Z 12013G18KT 06/04 A2977 RMK A01 T00630041  RH  088%=      5-min Rain = 0
KMNS 230300Z 13012G17KT 06/04 A2978 RMK A01 T00630043  RH  089%=      5-min Rain = 0
KMNS 230305Z 12012KT 06/05 A2977 RMK A01 T00630046  RH  090%=      5-min Rain = 0.01
KMNS 230310Z 12013KT 06/05 A2977 RMK A01 T00620046  RH  091%=      5-min Rain = 0
KMNS 230315Z 12016G21KT 06/05 A2975 RMK A01 T00620047  RH  092%=      5-min Rain = 0.01
KMNS 230320Z 11015G20KT 06/05 A2976 RMK A01 T00610048  RH  093%=      5-min Rain = 0.01
KMNS 230325Z 11014KT 06/05 A2976 RMK A01 T00620049  RH  094%=      5-min Rain = 0.01
KMNS 230330Z 12012G17KT 06/05 A2976 RMK A01 T00620050  RH  094%=      5-min Rain = 0.01
KMNS 230335Z 10013G18KT 06/05 A2974 RMK A01 T00620051  RH  095%=      5-min Rain = 0
KMNS 230340Z 10013KT 06/05 A2973 RMK A01 T00610051  RH  095%=      5-min Rain = 0.01
KMNS 230345Z 10015KT 06/05 A2973 RMK A01 T00610051  RH  096%=      5-min Rain = 0
KMNS 230350Z 10015KT 06/05 A2973 RMK A01 T00610052  RH  096%=      5-min Rain = 0
KMNS 230355Z 10015KT 06/05 A2973 RMK A01 T00590050  RH  096%=      5-min Rain = 0
KMNS 230400Z 10012KT 06/05 A2973 RMK A01 T00580049  RH  096%=      5-min Rain = 0
KMNS 230405Z 10011KT 06/05 A2973 RMK A01 T00580049  RH  096%=      5-min Rain = 0
KMNS 230410Z 09010KT 06/05 A2972 RMK A01 T00580050  RH  097%=      5-min Rain = 0
KMNS 230415Z 10011KT 06/05 A2972 RMK A01 T00590051  RH  097%=      5-min Rain = 0
KMNS 230420Z 09013KT 06/05 A2971 RMK A01 T00580051  RH  097%=      5-min Rain = 0
KMNS 230425Z 09014G19KT 06/05 A297 RMK A01 T00590052  RH  097%=      5-min Rain = 0
KMNS 230430Z 08012KT 06/05 A2971 RMK A01 T00600053  RH  097%=      5-min Rain = 0
KMNS 230435Z 07011KT 06/05 A297 RMK A01 T00600054  RH  098%=      5-min Rain = 0
KMNS 230440Z 09011G16KT 06/06 A297 RMK A01 T00620055  RH  098%=      5-min Rain = 0
KMNS 230445Z 10011KT 06/06 A2971 RMK A01 T00630056  RH  098%=      5-min Rain = 0
KMNS 230450Z 10013KT 06/06 A2972 RMK A01 T00630057  RH  098%=      5-min Rain = 0
KMNS 230455Z 10013KT 06/06 A2971 RMK A01 T00630057  RH  098%=      5-min Rain = 0
KMNS 230500Z 10015G21KT 06/06 A2969 RMK A01 T00620056  RH  098%=      5-min Rain = 0
KMNS 230505Z 10017G22KT 06/06 A2969 RMK A01 T00620057  RH  099%=      5-min Rain = 0
KMNS 230510Z 09017G22KT 06/06 A2968 RMK A01 T00620057  RH  099%=      5-min Rain = 0
KMNS 230515Z 10018G24KT 06/06 A2968 RMK A01 T00620057  RH  099%=      5-min Rain = 0
KMNS 230520Z 10017G22KT 06/06 A2967 RMK A01 T00620057  RH  099%=      5-min Rain = 0
KMNS 230525Z 10016G22KT 06/06 A2967 RMK A01 T00620057  RH  099%=      5-min Rain = 0
KMNS 230530Z 10014G21KT 06/06 A2967 RMK A01 T00620058  RH  099%=      5-min Rain = 0
KMNS 230535Z 10014G20KT 06/06 A2967 RMK A01 T00620058  RH  099%=      5-min Rain = 0.01
KMNS 230540Z 14009G16KT 06/06 A297 RMK A01 T00620058  RH  100%=      5-min Rain = 0.04
KMNS 230545Z 24012KT 06/06 A2973 RMK A01 T00630059  RH  100%=      5-min Rain = 0.06
KMNS 230550Z 23006G11KT 06/06 A2972 RMK A01 T00630059  RH  100%=      5-min Rain = 0.01
KMNS 230555Z 18005KT 06/06 A2972 RMK A01 T00630060  RH  100%=      5-min Rain = 0.01

Page generated in 0.0387 seconds.